sensor_id;sensor_type;location;lat;lon;timestamp;P1;durP1;ratioP1;P2;durP2;ratioP2
37527;SDS011;23372;52.050;4.810;2023-09-07T00:00:20;10.35;;;8.18;;
37527;SDS011;23372;52.050;4.810;2023-09-07T00:02:45;12.07;;;8.65;;
37527;SDS011;23372;52.050;4.810;2023-09-07T00:05:11;11.40;;;9.07;;
37527;SDS011;23372;52.050;4.810;2023-09-07T00:07:38;13.00;;;8.20;;
37527;SDS011;23372;52.050;4.810;2023-09-07T00:10:04;11.55;;;8.05;;
37527;SDS011;23372;52.050;4.810;2023-09-07T00:12:30;9.75;;;8.05;;
37527;SDS011;23372;52.050;4.810;2023-09-07T00:14:57;12.40;;;8.48;;
37527;SDS011;23372;52.050;4.810;2023-09-07T00:17:23;11.07;;;8.68;;
37527;SDS011;23372;52.050;4.810;2023-09-07T00:19:48;15.07;;;8.75;;
37527;SDS011;23372;52.050;4.810;2023-09-07T00:22:15;12.32;;;9.45;;
37527;SDS011;23372;52.050;4.810;2023-09-07T00:24:42;11.93;;;8.75;;
37527;SDS011;23372;52.050;4.810;2023-09-07T00:27:07;10.90;;;9.45;;
37527;SDS011;23372;52.050;4.810;2023-09-07T00:29:34;11.27;;;8.63;;
37527;SDS011;23372;52.050;4.810;2023-09-07T00:32:00;10.95;;;9.05;;
37527;SDS011;23372;52.050;4.810;2023-09-07T00:34:26;14.85;;;9.05;;
37527;SDS011;23372;52.050;4.810;2023-09-07T00:36:52;11.38;;;9.57;;
37527;SDS011;23372;52.050;4.810;2023-09-07T00:39:17;13.73;;;9.77;;
37527;SDS011;23372;52.050;4.810;2023-09-07T00:41:43;11.52;;;9.02;;
37527;SDS011;23372;52.050;4.810;2023-09-07T00:44:09;18.27;;;9.32;;
37527;SDS011;23372;52.050;4.810;2023-09-07T00:46:34;9.95;;;8.70;;
37527;SDS011;23372;52.050;4.810;2023-09-07T00:49:00;11.23;;;9.07;;
37527;SDS011;23372;52.050;4.810;2023-09-07T00:51:26;11.15;;;9.18;;
37527;SDS011;23372;52.050;4.810;2023-09-07T00:53:52;15.90;;;9.40;;
37527;SDS011;23372;52.050;4.810;2023-09-07T00:56:18;12.18;;;9.35;;
37527;SDS011;23372;52.050;4.810;2023-09-07T00:58:44;10.10;;;8.60;;
37527;SDS011;23372;52.050;4.810;2023-09-07T01:01:10;11.30;;;9.02;;
37527;SDS011;23372;52.050;4.810;2023-09-07T01:03:35;13.43;;;8.68;;
37527;SDS011;23372;52.050;4.810;2023-09-07T01:06:07;14.43;;;9.68;;
37527;SDS011;23372;52.050;4.810;2023-09-07T01:08:47;16.13;;;9.45;;
37527;SDS011;23372;52.050;4.810;2023-09-07T01:11:15;11.35;;;9.40;;
37527;SDS011;23372;52.050;4.810;2023-09-07T01:13:42;14.13;;;9.35;;
37527;SDS011;23372;52.050;4.810;2023-09-07T01:16:10;15.32;;;9.32;;
37527;SDS011;23372;52.050;4.810;2023-09-07T01:18:38;14.45;;;9.77;;
37527;SDS011;23372;52.050;4.810;2023-09-07T01:21:07;13.43;;;10.00;;
37527;SDS011;23372;52.050;4.810;2023-09-07T01:23:37;11.50;;;9.13;;
37527;SDS011;23372;52.050;4.810;2023-09-07T01:26:05;12.05;;;9.45;;
37527;SDS011;23372;52.050;4.810;2023-09-07T01:28:32;13.40;;;10.02;;
37527;SDS011;23372;52.050;4.810;2023-09-07T01:30:57;13.13;;;9.60;;
37527;SDS011;23372;52.050;4.810;2023-09-07T01:33:23;12.70;;;10.02;;
37527;SDS011;23372;52.050;4.810;2023-09-07T01:35:49;12.07;;;10.05;;
37527;SDS011;23372;52.050;4.810;2023-09-07T01:38:14;14.43;;;10.68;;
37527;SDS011;23372;52.050;4.810;2023-09-07T01:40:40;12.48;;;10.60;;
37527;SDS011;23372;52.050;4.810;2023-09-07T01:43:05;16.10;;;11.00;;
37527;SDS011;23372;52.050;4.810;2023-09-07T01:45:31;14.05;;;10.52;;
37527;SDS011;23372;52.050;4.810;2023-09-07T01:47:57;13.27;;;10.55;;
37527;SDS011;23372;52.050;4.810;2023-09-07T01:50:24;14.85;;;11.05;;
37527;SDS011;23372;52.050;4.810;2023-09-07T01:52:50;13.65;;;10.48;;
37527;SDS011;23372;52.050;4.810;2023-09-07T01:55:16;14.93;;;10.88;;
37527;SDS011;23372;52.050;4.810;2023-09-07T01:57:42;17.17;;;10.05;;
37527;SDS011;23372;52.050;4.810;2023-09-07T02:00:09;14.38;;;10.45;;
37527;SDS011;23372;52.050;4.810;2023-09-07T02:02:35;14.93;;;10.50;;
37527;SDS011;23372;52.050;4.810;2023-09-07T02:05:01;16.52;;;11.68;;
37527;SDS011;23372;52.050;4.810;2023-09-07T02:07:26;13.32;;;10.98;;
37527;SDS011;23372;52.050;4.810;2023-09-07T02:09:52;14.75;;;10.60;;
37527;SDS011;23372;52.050;4.810;2023-09-07T02:12:18;15.45;;;10.18;;
37527;SDS011;23372;52.050;4.810;2023-09-07T02:14:43;13.70;;;11.00;;
37527;SDS011;23372;52.050;4.810;2023-09-07T02:17:09;14.05;;;10.23;;
37527;SDS011;23372;52.050;4.810;2023-09-07T02:19:34;15.50;;;11.02;;
37527;SDS011;23372;52.050;4.810;2023-09-07T02:22:00;14.77;;;10.75;;
37527;SDS011;23372;52.050;4.810;2023-09-07T02:24:26;13.30;;;11.40;;
37527;SDS011;23372;52.050;4.810;2023-09-07T02:26:51;13.07;;;10.48;;
37527;SDS011;23372;52.050;4.810;2023-09-07T02:29:17;13.75;;;11.00;;
37527;SDS011;23372;52.050;4.810;2023-09-07T02:31:43;12.23;;;10.60;;
37527;SDS011;23372;52.050;4.810;2023-09-07T02:34:08;15.55;;;11.70;;
37527;SDS011;23372;52.050;4.810;2023-09-07T02:36:34;16.70;;;10.98;;
37527;SDS011;23372;52.050;4.810;2023-09-07T02:39:00;14.05;;;10.88;;
37527;SDS011;23372;52.050;4.810;2023-09-07T02:41:26;15.70;;;11.77;;
37527;SDS011;23372;52.050;4.810;2023-09-07T02:43:52;15.55;;;10.68;;
37527;SDS011;23372;52.050;4.810;2023-09-07T02:46:17;15.18;;;11.27;;
37527;SDS011;23372;52.050;4.810;2023-09-07T02:48:43;24.77;;;12.20;;
37527;SDS011;23372;52.050;4.810;2023-09-07T02:51:08;15.43;;;11.13;;
37527;SDS011;23372;52.050;4.810;2023-09-07T02:53:34;18.60;;;11.73;;
37527;SDS011;23372;52.050;4.810;2023-09-07T02:55:59;15.35;;;11.80;;
37527;SDS011;23372;52.050;4.810;2023-09-07T02:58:29;14.75;;;12.02;;
37527;SDS011;23372;52.050;4.810;2023-09-07T03:00:54;14.57;;;11.43;;
37527;SDS011;23372;52.050;4.810;2023-09-07T03:03:20;13.68;;;11.63;;
37527;SDS011;23372;52.050;4.810;2023-09-07T03:05:45;19.70;;;12.05;;
37527;SDS011;23372;52.050;4.810;2023-09-07T03:08:11;15.70;;;12.43;;
37527;SDS011;23372;52.050;4.810;2023-09-07T03:10:37;15.27;;;11.93;;
37527;SDS011;23372;52.050;4.810;2023-09-07T03:13:04;16.83;;;12.40;;
37527;SDS011;23372;52.050;4.810;2023-09-07T03:15:33;15.25;;;12.52;;
37527;SDS011;23372;52.050;4.810;2023-09-07T03:17:59;18.75;;;12.50;;
37527;SDS011;23372;52.050;4.810;2023-09-07T03:20:24;16.75;;;12.40;;
37527;SDS011;23372;52.050;4.810;2023-09-07T03:22:50;16.92;;;12.55;;
37527;SDS011;23372;52.050;4.810;2023-09-07T03:25:16;18.38;;;13.32;;
37527;SDS011;23372;52.050;4.810;2023-09-07T03:27:41;16.00;;;12.65;;
37527;SDS011;23372;52.050;4.810;2023-09-07T03:30:07;18.25;;;12.55;;
37527;SDS011;23372;52.050;4.810;2023-09-07T03:32:33;15.02;;;12.52;;
37527;SDS011;23372;52.050;4.810;2023-09-07T03:34:59;19.83;;;13.15;;
37527;SDS011;23372;52.050;4.810;2023-09-07T03:37:28;19.23;;;13.48;;
37527;SDS011;23372;52.050;4.810;2023-09-07T03:39:54;15.88;;;13.65;;
37527;SDS011;23372;52.050;4.810;2023-09-07T03:42:20;16.15;;;12.70;;
37527;SDS011;23372;52.050;4.810;2023-09-07T03:44:45;16.80;;;13.45;;
37527;SDS011;23372;52.050;4.810;2023-09-07T03:47:13;17.23;;;12.98;;
37527;SDS011;23372;52.050;4.810;2023-09-07T03:49:39;17.80;;;13.93;;
37527;SDS011;23372;52.050;4.810;2023-09-07T03:52:04;18.73;;;12.90;;
37527;SDS011;23372;52.050;4.810;2023-09-07T03:54:30;19.42;;;13.30;;
37527;SDS011;23372;52.050;4.810;2023-09-07T03:56:56;16.52;;;12.73;;
37527;SDS011;23372;52.050;4.810;2023-09-07T03:59:22;18.00;;;13.15;;
37527;SDS011;23372;52.050;4.810;2023-09-07T04:01:47;17.95;;;13.23;;
37527;SDS011;23372;52.050;4.810;2023-09-07T04:04:14;15.77;;;13.40;;
37527;SDS011;23372;52.050;4.810;2023-09-07T04:06:40;15.75;;;13.40;;
37527;SDS011;23372;52.050;4.810;2023-09-07T04:09:05;17.50;;;14.10;;
37527;SDS011;23372;52.050;4.810;2023-09-07T04:11:31;19.52;;;12.93;;
37527;SDS011;23372;52.050;4.810;2023-09-07T04:13:57;22.90;;;13.90;;
37527;SDS011;23372;52.050;4.810;2023-09-07T04:16:22;16.50;;;13.75;;
37527;SDS011;23372;52.050;4.810;2023-09-07T04:18:48;19.40;;;13.10;;
37527;SDS011;23372;52.050;4.810;2023-09-07T04:21:13;18.08;;;13.18;;
37527;SDS011;23372;52.050;4.810;2023-09-07T04:23:39;18.23;;;14.20;;
37527;SDS011;23372;52.050;4.810;2023-09-07T04:26:08;17.70;;;14.32;;
37527;SDS011;23372;52.050;4.810;2023-09-07T04:28:35;19.83;;;14.50;;
37527;SDS011;23372;52.050;4.810;2023-09-07T04:31:02;17.77;;;14.63;;
37527;SDS011;23372;52.050;4.810;2023-09-07T04:33:31;18.25;;;13.80;;
37527;SDS011;23372;52.050;4.810;2023-09-07T04:36:11;18.38;;;14.15;;
37527;SDS011;23372;52.050;4.810;2023-09-07T04:38:38;17.98;;;14.75;;
37527;SDS011;23372;52.050;4.810;2023-09-07T04:41:11;19.02;;;14.93;;
37527;SDS011;23372;52.050;4.810;2023-09-07T04:43:38;18.65;;;14.85;;
37527;SDS011;23372;52.050;4.810;2023-09-07T04:46:10;19.50;;;14.00;;
37527;SDS011;23372;52.050;4.810;2023-09-07T04:48:37;20.33;;;14.73;;
37527;SDS011;23372;52.050;4.810;2023-09-07T04:51:04;20.25;;;15.05;;
37527;SDS011;23372;52.050;4.810;2023-09-07T04:53:31;20.35;;;14.48;;
37527;SDS011;23372;52.050;4.810;2023-09-07T04:56:00;19.15;;;15.07;;
37527;SDS011;23372;52.050;4.810;2023-09-07T04:58:26;20.70;;;14.77;;
37527;SDS011;23372;52.050;4.810;2023-09-07T05:00:52;21.63;;;15.10;;
37527;SDS011;23372;52.050;4.810;2023-09-07T05:03:18;19.80;;;14.75;;
37527;SDS011;23372;52.050;4.810;2023-09-07T05:05:44;22.70;;;13.98;;
37527;SDS011;23372;52.050;4.810;2023-09-07T05:08:10;21.60;;;14.88;;
37527;SDS011;23372;52.050;4.810;2023-09-07T05:10:36;22.17;;;15.38;;
37527;SDS011;23372;52.050;4.810;2023-09-07T05:13:03;17.90;;;15.02;;
37527;SDS011;23372;52.050;4.810;2023-09-07T05:15:28;22.17;;;15.15;;
37527;SDS011;23372;52.050;4.810;2023-09-07T05:17:54;18.90;;;15.10;;
37527;SDS011;23372;52.050;4.810;2023-09-07T05:20:20;24.13;;;14.93;;
37527;SDS011;23372;52.050;4.810;2023-09-07T05:22:46;23.13;;;15.13;;
37527;SDS011;23372;52.050;4.810;2023-09-07T05:25:12;18.83;;;15.60;;
37527;SDS011;23372;52.050;4.810;2023-09-07T05:27:38;17.95;;;14.35;;
37527;SDS011;23372;52.050;4.810;2023-09-07T05:30:04;19.83;;;14.55;;
37527;SDS011;23372;52.050;4.810;2023-09-07T05:32:30;21.02;;;14.70;;
37527;SDS011;23372;52.050;4.810;2023-09-07T05:34:56;18.77;;;14.98;;
37527;SDS011;23372;52.050;4.810;2023-09-07T05:37:21;18.05;;;15.02;;
37527;SDS011;23372;52.050;4.810;2023-09-07T05:39:47;20.80;;;14.80;;
37527;SDS011;23372;52.050;4.810;2023-09-07T05:42:13;19.58;;;13.90;;
37527;SDS011;23372;52.050;4.810;2023-09-07T05:44:39;18.90;;;14.45;;
37527;SDS011;23372;52.050;4.810;2023-09-07T05:47:05;21.70;;;14.48;;
37527;SDS011;23372;52.050;4.810;2023-09-07T05:49:30;22.23;;;14.48;;
37527;SDS011;23372;52.050;4.810;2023-09-07T05:51:56;25.20;;;15.25;;
37527;SDS011;23372;52.050;4.810;2023-09-07T05:54:22;17.90;;;14.73;;
37527;SDS011;23372;52.050;4.810;2023-09-07T05:56:47;21.85;;;14.00;;
37527;SDS011;23372;52.050;4.810;2023-09-07T05:59:13;18.70;;;14.52;;
37527;SDS011;23372;52.050;4.810;2023-09-07T06:01:39;21.33;;;15.43;;
37527;SDS011;23372;52.050;4.810;2023-09-07T06:04:05;22.02;;;15.00;;
37527;SDS011;23372;52.050;4.810;2023-09-07T06:06:31;23.23;;;14.98;;
37527;SDS011;23372;52.050;4.810;2023-09-07T06:08:57;17.27;;;14.18;;
37527;SDS011;23372;52.050;4.810;2023-09-07T06:11:25;23.58;;;15.45;;
37527;SDS011;23372;52.050;4.810;2023-09-07T06:13:51;18.52;;;14.57;;
37527;SDS011;23372;52.050;4.810;2023-09-07T06:16:17;18.38;;;14.77;;
37527;SDS011;23372;52.050;4.810;2023-09-07T06:18:42;20.73;;;14.93;;
37527;SDS011;23372;52.050;4.810;2023-09-07T06:21:08;18.17;;;15.20;;
37527;SDS011;23372;52.050;4.810;2023-09-07T06:23:34;18.67;;;14.63;;
37527;SDS011;23372;52.050;4.810;2023-09-07T06:26:00;18.80;;;14.20;;
37527;SDS011;23372;52.050;4.810;2023-09-07T06:28:26;19.33;;;14.13;;
37527;SDS011;23372;52.050;4.810;2023-09-07T06:30:51;19.77;;;13.90;;
37527;SDS011;23372;52.050;4.810;2023-09-07T06:33:17;21.08;;;14.43;;
37527;SDS011;23372;52.050;4.810;2023-09-07T06:35:43;21.10;;;14.43;;
37527;SDS011;23372;52.050;4.810;2023-09-07T06:38:08;17.33;;;14.80;;
37527;SDS011;23372;52.050;4.810;2023-09-07T06:40:34;16.85;;;14.00;;
37527;SDS011;23372;52.050;4.810;2023-09-07T06:42:59;21.95;;;14.93;;
37527;SDS011;23372;52.050;4.810;2023-09-07T06:45:25;26.67;;;16.08;;
37527;SDS011;23372;52.050;4.810;2023-09-07T06:47:52;20.00;;;14.55;;
37527;SDS011;23372;52.050;4.810;2023-09-07T06:50:17;18.17;;;14.20;;
37527;SDS011;23372;52.050;4.810;2023-09-07T06:52:44;18.25;;;13.15;;
37527;SDS011;23372;52.050;4.810;2023-09-07T06:55:09;15.95;;;11.90;;
37527;SDS011;23372;52.050;4.810;2023-09-07T06:57:35;11.90;;;10.00;;
37527;SDS011;23372;52.050;4.810;2023-09-07T07:00:01;13.35;;;10.00;;
37527;SDS011;23372;52.050;4.810;2023-09-07T07:02:30;13.88;;;9.85;;
37527;SDS011;23372;52.050;4.810;2023-09-07T07:04:56;13.20;;;9.50;;
37527;SDS011;23372;52.050;4.810;2023-09-07T07:07:21;11.50;;;8.68;;
37527;SDS011;23372;52.050;4.810;2023-09-07T07:09:47;18.15;;;9.25;;
37527;SDS011;23372;52.050;4.810;2023-09-07T07:12:13;14.80;;;8.55;;
37527;SDS011;23372;52.050;4.810;2023-09-07T07:14:38;12.15;;;9.00;;
37527;SDS011;23372;52.050;4.810;2023-09-07T07:17:04;10.82;;;8.73;;
37527;SDS011;23372;52.050;4.810;2023-09-07T07:19:30;13.13;;;8.27;;
37527;SDS011;23372;52.050;4.810;2023-09-07T07:21:56;13.65;;;8.73;;
37527;SDS011;23372;52.050;4.810;2023-09-07T07:24:21;10.32;;;8.40;;
37527;SDS011;23372;52.050;4.810;2023-09-07T07:26:47;10.57;;;8.05;;
37527;SDS011;23372;52.050;4.810;2023-09-07T07:29:13;11.60;;;8.15;;
37527;SDS011;23372;52.050;4.810;2023-09-07T07:31:38;11.98;;;8.00;;
37527;SDS011;23372;52.050;4.810;2023-09-07T07:34:04;10.38;;;7.68;;
37527;SDS011;23372;52.050;4.810;2023-09-07T07:36:29;11.20;;;7.53;;
37527;SDS011;23372;52.050;4.810;2023-09-07T07:38:55;12.60;;;7.82;;
37527;SDS011;23372;52.050;4.810;2023-09-07T07:41:21;11.35;;;7.85;;
37527;SDS011;23372;52.050;4.810;2023-09-07T07:43:47;11.60;;;7.50;;
37527;SDS011;23372;52.050;4.810;2023-09-07T07:46:12;8.75;;;7.10;;
37527;SDS011;23372;52.050;4.810;2023-09-07T07:48:40;8.25;;;6.97;;
37527;SDS011;23372;52.050;4.810;2023-09-07T07:51:06;9.63;;;6.88;;
37527;SDS011;23372;52.050;4.810;2023-09-07T07:53:32;8.57;;;6.90;;
37527;SDS011;23372;52.050;4.810;2023-09-07T07:55:57;9.65;;;6.95;;
37527;SDS011;23372;52.050;4.810;2023-09-07T07:58:23;10.95;;;6.80;;
37527;SDS011;23372;52.050;4.810;2023-09-07T08:00:48;9.23;;;6.88;;
37527;SDS011;23372;52.050;4.810;2023-09-07T08:03:15;10.68;;;6.78;;
37527;SDS011;23372;52.050;4.810;2023-09-07T08:05:40;7.53;;;6.72;;
37527;SDS011;23372;52.050;4.810;2023-09-07T08:08:07;7.95;;;6.88;;
37527;SDS011;23372;52.050;4.810;2023-09-07T08:10:33;14.63;;;7.20;;
37527;SDS011;23372;52.050;4.810;2023-09-07T08:13:01;14.38;;;6.95;;
37527;SDS011;23372;52.050;4.810;2023-09-07T08:15:27;12.23;;;7.00;;
37527;SDS011;23372;52.050;4.810;2023-09-07T08:17:53;9.57;;;6.10;;
37527;SDS011;23372;52.050;4.810;2023-09-07T08:20:19;10.30;;;7.07;;
37527;SDS011;23372;52.050;4.810;2023-09-07T08:22:45;10.98;;;6.53;;
37527;SDS011;23372;52.050;4.810;2023-09-07T08:25:11;9.95;;;6.90;;
37527;SDS011;23372;52.050;4.810;2023-09-07T08:27:40;9.52;;;6.38;;
37527;SDS011;23372;52.050;4.810;2023-09-07T08:30:15;16.27;;;6.60;;
37527;SDS011;23372;52.050;4.810;2023-09-07T08:32:42;11.45;;;6.35;;
37527;SDS011;23372;52.050;4.810;2023-09-07T08:35:09;6.53;;;5.93;;
37527;SDS011;23372;52.050;4.810;2023-09-07T08:37:37;12.55;;;6.20;;
37527;SDS011;23372;52.050;4.810;2023-09-07T08:40:03;7.30;;;5.75;;
37527;SDS011;23372;52.050;4.810;2023-09-07T08:42:32;8.57;;;5.50;;
37527;SDS011;23372;52.050;4.810;2023-09-07T08:44:57;11.55;;;5.75;;
37527;SDS011;23372;52.050;4.810;2023-09-07T08:47:28;7.03;;;4.50;;
37527;SDS011;23372;52.050;4.810;2023-09-07T08:49:56;8.52;;;5.15;;
37527;SDS011;23372;52.050;4.810;2023-09-07T08:52:23;6.97;;;4.55;;
37527;SDS011;23372;52.050;4.810;2023-09-07T08:54:48;7.00;;;4.82;;
37527;SDS011;23372;52.050;4.810;2023-09-07T08:57:15;7.10;;;4.60;;
37527;SDS011;23372;52.050;4.810;2023-09-07T08:59:41;7.00;;;4.45;;
37527;SDS011;23372;52.050;4.810;2023-09-07T09:02:08;9.60;;;4.68;;
37527;SDS011;23372;52.050;4.810;2023-09-07T09:04:35;7.80;;;5.07;;
37527;SDS011;23372;52.050;4.810;2023-09-07T09:07:02;9.70;;;5.05;;
37527;SDS011;23372;52.050;4.810;2023-09-07T09:09:29;6.55;;;4.57;;
37527;SDS011;23372;52.050;4.810;2023-09-07T09:11:55;8.60;;;4.95;;
37527;SDS011;23372;52.050;4.810;2023-09-07T09:14:35;13.25;;;5.07;;
37527;SDS011;23372;52.050;4.810;2023-09-07T09:17:00;12.50;;;5.32;;
37527;SDS011;23372;52.050;4.810;2023-09-07T09:19:33;13.68;;;5.70;;
37527;SDS011;23372;52.050;4.810;2023-09-07T09:21:59;8.75;;;5.20;;
37527;SDS011;23372;52.050;4.810;2023-09-07T09:24:25;6.85;;;5.32;;
37527;SDS011;23372;52.050;4.810;2023-09-07T09:26:51;7.43;;;5.13;;
37527;SDS011;23372;52.050;4.810;2023-09-07T09:29:21;9.32;;;4.82;;
37527;SDS011;23372;52.050;4.810;2023-09-07T09:31:48;11.32;;;4.80;;
37527;SDS011;23372;52.050;4.810;2023-09-07T09:34:13;10.18;;;4.95;;
37527;SDS011;23372;52.050;4.810;2023-09-07T09:36:41;9.18;;;5.18;;
37527;SDS011;23372;52.050;4.810;2023-09-07T09:39:08;9.82;;;5.03;;
37527;SDS011;23372;52.050;4.810;2023-09-07T09:41:34;7.78;;;5.35;;
37527;SDS011;23372;52.050;4.810;2023-09-07T09:44:02;9.07;;;5.70;;
37527;SDS011;23372;52.050;4.810;2023-09-07T09:46:28;12.07;;;5.03;;
37527;SDS011;23372;52.050;4.810;2023-09-07T09:48:57;9.98;;;4.57;;
37527;SDS011;23372;52.050;4.810;2023-09-07T09:51:22;7.32;;;4.95;;
37527;SDS011;23372;52.050;4.810;2023-09-07T09:53:49;10.57;;;5.18;;
37527;SDS011;23372;52.050;4.810;2023-09-07T09:56:16;5.80;;;4.60;;
37527;SDS011;23372;52.050;4.810;2023-09-07T09:58:42;7.10;;;4.40;;
37527;SDS011;23372;52.050;4.810;2023-09-07T10:01:08;8.73;;;5.03;;
37527;SDS011;23372;52.050;4.810;2023-09-07T10:03:39;6.63;;;4.72;;
37527;SDS011;23372;52.050;4.810;2023-09-07T10:06:18;7.50;;;4.15;;
37527;SDS011;23372;52.050;4.810;2023-09-07T10:09:03;7.13;;;4.45;;
37527;SDS011;23372;52.050;4.810;2023-09-07T10:11:35;8.63;;;5.25;;
37527;SDS011;23372;52.050;4.810;2023-09-07T10:14:06;8.38;;;4.50;;
37527;SDS011;23372;52.050;4.810;2023-09-07T10:16:42;5.97;;;3.78;;
37527;SDS011;23372;52.050;4.810;2023-09-07T10:19:15;7.45;;;4.18;;
37527;SDS011;23372;52.050;4.810;2023-09-07T10:21:45;6.80;;;4.13;;
37527;SDS011;23372;52.050;4.810;2023-09-07T10:24:11;7.00;;;3.90;;
37527;SDS011;23372;52.050;4.810;2023-09-07T10:26:55;7.20;;;3.75;;
37527;SDS011;23372;52.050;4.810;2023-09-07T10:29:21;10.70;;;4.50;;
37527;SDS011;23372;52.050;4.810;2023-09-07T10:31:51;12.32;;;4.13;;
37527;SDS011;23372;52.050;4.810;2023-09-07T10:34:17;12.15;;;4.00;;
37527;SDS011;23372;52.050;4.810;2023-09-07T10:36:43;5.88;;;3.85;;
37527;SDS011;23372;52.050;4.810;2023-09-07T10:39:09;6.63;;;3.58;;
37527;SDS011;23372;52.050;4.810;2023-09-07T10:41:44;6.05;;;3.97;;
37527;SDS011;23372;52.050;4.810;2023-09-07T10:44:10;7.03;;;3.50;;
37527;SDS011;23372;52.050;4.810;2023-09-07T10:46:37;5.75;;;2.85;;
37527;SDS011;23372;52.050;4.810;2023-09-07T10:49:05;6.13;;;3.28;;
37527;SDS011;23372;52.050;4.810;2023-09-07T10:51:33;6.18;;;3.60;;
37527;SDS011;23372;52.050;4.810;2023-09-07T10:54:13;5.57;;;3.60;;
37527;SDS011;23372;52.050;4.810;2023-09-07T10:56:45;6.70;;;3.50;;
37527;SDS011;23372;52.050;4.810;2023-09-07T10:59:14;7.00;;;3.22;;
37527;SDS011;23372;52.050;4.810;2023-09-07T11:01:41;4.28;;;3.15;;
37527;SDS011;23372;52.050;4.810;2023-09-07T11:04:08;6.78;;;3.40;;
37527;SDS011;23372;52.050;4.810;2023-09-07T11:06:36;5.60;;;3.60;;
37527;SDS011;23372;52.050;4.810;2023-09-07T11:09:02;5.00;;;3.38;;
37527;SDS011;23372;52.050;4.810;2023-09-07T11:11:33;4.25;;;3.25;;
37527;SDS011;23372;52.050;4.810;2023-09-07T11:13:59;7.47;;;3.97;;
37527;SDS011;23372;52.050;4.810;2023-09-07T11:16:26;5.00;;;3.47;;
37527;SDS011;23372;52.050;4.810;2023-09-07T11:18:52;5.25;;;3.35;;
37527;SDS011;23372;52.050;4.810;2023-09-07T11:21:19;4.43;;;3.33;;
37527;SDS011;23372;52.050;4.810;2023-09-07T11:23:45;5.72;;;3.35;;
37527;SDS011;23372;52.050;4.810;2023-09-07T11:26:11;5.43;;;3.65;;
37527;SDS011;23372;52.050;4.810;2023-09-07T11:28:37;5.30;;;3.42;;
37527;SDS011;23372;52.050;4.810;2023-09-07T11:31:03;6.82;;;3.42;;
37527;SDS011;23372;52.050;4.810;2023-09-07T11:33:31;6.63;;;3.55;;
37527;SDS011;23372;52.050;4.810;2023-09-07T11:35:58;5.80;;;3.08;;
37527;SDS011;23372;52.050;4.810;2023-09-07T11:38:28;5.07;;;3.28;;
37527;SDS011;23372;52.050;4.810;2023-09-07T11:40:55;3.67;;;2.67;;
37527;SDS011;23372;52.050;4.810;2023-09-07T11:43:21;6.85;;;3.35;;
37527;SDS011;23372;52.050;4.810;2023-09-07T11:45:47;4.15;;;3.60;;
37527;SDS011;23372;52.050;4.810;2023-09-07T11:48:13;9.55;;;3.63;;
37527;SDS011;23372;52.050;4.810;2023-09-07T11:50:39;6.55;;;3.60;;
37527;SDS011;23372;52.050;4.810;2023-09-07T11:53:05;4.90;;;3.13;;
37527;SDS011;23372;52.050;4.810;2023-09-07T11:55:31;4.22;;;3.28;;
37527;SDS011;23372;52.050;4.810;2023-09-07T11:58:00;6.40;;;3.35;;
37527;SDS011;23372;52.050;4.810;2023-09-07T12:00:32;4.78;;;3.72;;
37527;SDS011;23372;52.050;4.810;2023-09-07T12:02:57;5.63;;;3.58;;
37527;SDS011;23372;52.050;4.810;2023-09-07T12:05:23;5.10;;;3.90;;
37527;SDS011;23372;52.050;4.810;2023-09-07T12:07:49;5.85;;;3.63;;
37527;SDS011;23372;52.050;4.810;2023-09-07T12:10:15;5.32;;;3.72;;
37527;SDS011;23372;52.050;4.810;2023-09-07T12:12:41;4.25;;;3.60;;
37527;SDS011;23372;52.050;4.810;2023-09-07T12:15:07;6.53;;;3.58;;
37527;SDS011;23372;52.050;4.810;2023-09-07T12:17:33;7.90;;;3.45;;
37527;SDS011;23372;52.050;4.810;2023-09-07T12:19:59;4.03;;;3.28;;
37527;SDS011;23372;52.050;4.810;2023-09-07T12:22:25;7.20;;;3.90;;
37527;SDS011;23372;52.050;4.810;2023-09-07T12:24:51;5.78;;;3.78;;
37527;SDS011;23372;52.050;4.810;2023-09-07T12:27:17;7.07;;;3.50;;
37527;SDS011;23372;52.050;4.810;2023-09-07T12:29:43;4.25;;;3.22;;
37527;SDS011;23372;52.050;4.810;2023-09-07T12:32:09;4.55;;;3.53;;
37527;SDS011;23372;52.050;4.810;2023-09-07T12:34:35;5.63;;;3.85;;
37527;SDS011;23372;52.050;4.810;2023-09-07T12:37:01;7.20;;;3.80;;
37527;SDS011;23372;52.050;4.810;2023-09-07T12:39:29;4.93;;;3.60;;
37527;SDS011;23372;52.050;4.810;2023-09-07T12:41:55;8.95;;;3.60;;
37527;SDS011;23372;52.050;4.810;2023-09-07T12:44:20;10.85;;;3.80;;
37527;SDS011;23372;52.050;4.810;2023-09-07T12:46:46;4.53;;;3.47;;
37527;SDS011;23372;52.050;4.810;2023-09-07T12:49:12;5.32;;;3.83;;
37527;SDS011;23372;52.050;4.810;2023-09-07T12:51:40;7.10;;;3.88;;
37527;SDS011;23372;52.050;4.810;2023-09-07T12:54:06;3.58;;;3.20;;
37527;SDS011;23372;52.050;4.810;2023-09-07T12:56:31;4.43;;;3.50;;
37527;SDS011;23372;52.050;4.810;2023-09-07T12:58:57;4.03;;;3.53;;
37527;SDS011;23372;52.050;4.810;2023-09-07T13:01:24;8.18;;;3.40;;
37527;SDS011;23372;52.050;4.810;2023-09-07T13:03:53;6.88;;;3.70;;
37527;SDS011;23372;52.050;4.810;2023-09-07T13:06:18;8.13;;;3.72;;
37527;SDS011;23372;52.050;4.810;2023-09-07T13:08:44;4.88;;;3.40;;
37527;SDS011;23372;52.050;4.810;2023-09-07T13:11:10;5.63;;;3.42;;
37527;SDS011;23372;52.050;4.810;2023-09-07T13:13:36;5.38;;;3.47;;
37527;SDS011;23372;52.050;4.810;2023-09-07T13:16:02;5.43;;;3.53;;
37527;SDS011;23372;52.050;4.810;2023-09-07T13:18:28;4.97;;;3.78;;
37527;SDS011;23372;52.050;4.810;2023-09-07T13:20:53;4.93;;;3.72;;
37527;SDS011;23372;52.050;4.810;2023-09-07T13:23:24;5.88;;;3.92;;
37527;SDS011;23372;52.050;4.810;2023-09-07T13:25:50;6.35;;;3.55;;
37527;SDS011;23372;52.050;4.810;2023-09-07T13:28:16;8.35;;;4.03;;
37527;SDS011;23372;52.050;4.810;2023-09-07T13:30:42;7.72;;;4.68;;
37527;SDS011;23372;52.050;4.810;2023-09-07T13:33:07;6.40;;;3.63;;
37527;SDS011;23372;52.050;4.810;2023-09-07T13:35:33;7.47;;;3.50;;
37527;SDS011;23372;52.050;4.810;2023-09-07T13:37:58;5.15;;;3.15;;
37527;SDS011;23372;52.050;4.810;2023-09-07T13:40:24;9.60;;;3.70;;
37527;SDS011;23372;52.050;4.810;2023-09-07T13:42:54;6.10;;;3.85;;
37527;SDS011;23372;52.050;4.810;2023-09-07T13:45:20;5.25;;;3.60;;
37527;SDS011;23372;52.050;4.810;2023-09-07T13:47:46;6.75;;;3.72;;
37527;SDS011;23372;52.050;4.810;2023-09-07T13:50:11;5.55;;;4.05;;
37527;SDS011;23372;52.050;4.810;2023-09-07T13:52:37;4.85;;;3.70;;
37527;SDS011;23372;52.050;4.810;2023-09-07T13:55:04;5.95;;;3.20;;
37527;SDS011;23372;52.050;4.810;2023-09-07T13:57:30;7.68;;;3.50;;
37527;SDS011;23372;52.050;4.810;2023-09-07T13:59:55;8.98;;;3.85;;
37527;SDS011;23372;52.050;4.810;2023-09-07T14:02:21;5.30;;;3.70;;
37527;SDS011;23372;52.050;4.810;2023-09-07T14:04:47;6.50;;;4.53;;
37527;SDS011;23372;52.050;4.810;2023-09-07T14:07:14;4.57;;;3.85;;
37527;SDS011;23372;52.050;4.810;2023-09-07T14:09:40;5.80;;;3.50;;
37527;SDS011;23372;52.050;4.810;2023-09-07T14:12:05;6.32;;;4.32;;
37527;SDS011;23372;52.050;4.810;2023-09-07T14:14:31;8.38;;;4.47;;
37527;SDS011;23372;52.050;4.810;2023-09-07T14:16:57;10.20;;;4.28;;
37527;SDS011;23372;52.050;4.810;2023-09-07T14:19:23;10.43;;;4.18;;
37527;SDS011;23372;52.050;4.810;2023-09-07T14:21:49;9.75;;;4.30;;
37527;SDS011;23372;52.050;4.810;2023-09-07T14:24:14;7.68;;;4.15;;
37527;SDS011;23372;52.050;4.810;2023-09-07T14:26:40;7.13;;;4.13;;
37527;SDS011;23372;52.050;4.810;2023-09-07T14:29:05;5.88;;;4.20;;
37527;SDS011;23372;52.050;4.810;2023-09-07T14:31:31;7.75;;;3.83;;